• Join FlightAware (Why Join?)
  • Login
  • US Flag 
01:36PM EDT


 

Airport Tracker/Info


-or-


 

Live Flight TrackerFlight Track Log ✈ DAL3799 ✈ 17-Apr-2013 ✈ KDTW - CYOW

Flight Track Log - Related Links

Times and Time Zones

All times are in EDT time to prevent confusion due to time zone crossing. See the DAL3799 flight status page for this flight to view local times or setup timezone preferences in your user account.

Time Position Orientation Groundspeed Altitude Reporting Facility
EDT Latitude Longitude Course Direction KTS MPH feet Rate Location/Type
11:17PM 42.2292 -83.3369 71° East 154 177 1,500  Level Cleveland Center
11:18PM 42.2553 -83.2903 53° Northeast 214 246 2,900 1,620 Climbing Cleveland Center
11:18PM 42.2644 -83.2572 69° East 215 247 3,600 1,740 Climbing Cleveland Center
11:19PM 42.2614 -83.2092 95° East 244 281 4,700 1,620 Climbing Cleveland Center
11:19PM 42.2561 -83.1614 98° East 276 318 5,300 2,100 Climbing Cleveland Center
11:20PM 42.6642 -83.1974 12° North  Level FlightAware Approximate
11:20PM 42.2206 -83.0758 119° Southeast 290 334 7,700  Level Cleveland Center
11:21PM 42.7822 -83.1604 16° North  Level FlightAware Approximate
11:21PM 42.1925 -83.0242 126° Southeast 283 326 9,700  Level Cleveland Center
11:22PM 42.8889 -83.1111 71° East  Level FlightAware Approximate
11:22PM 42.2258 -82.9244 66° East 360 414 10,200  Level Cleveland Center
11:23PM 42.3428 -82.8108 36° Northeast 363 418 13,000 1,320 Climbing Cleveland Center
11:24PM 42.4031 -82.8186 355° North 340 391 13,000  Level Cleveland Center
11:25PM 42.4814 -82.8553 341° North 337 388 13,000  Level Cleveland Center
11:26PM 42.5619 -82.9003 338° Northwest 331 381 13,000 1,140 Level Cleveland Center
11:27PM 42.6358 -82.9567 331° Northwest 310 357 15,300 1,980 Climbing Cleveland Center
11:28PM 42.7175 -82.9344 11° North 289 333 17,000 1,380 Climbing Cleveland Center
11:29PM 42.7903 -82.8353 45° Northeast 291 335 18,100 1,140 Climbing Cleveland Center
11:30PM 42.8633 -82.7331 46° Northeast 337 388 19,400 1,260 Climbing Cleveland Center
11:31PM 42.9297 -82.6219 51° Northeast 355 409 20,700 1,320 Climbing Cleveland Center
11:31PM 42.9333 -82.5167 87° East 390 449 21,500 1,200 Climbing Toronto Center
11:32PM 42.9833 -82.3833 63° Northeast 400 460 22,600 780 Climbing Toronto Center
11:33PM 43.0167 -82.2333 73° East 410 472 23,100 600 Climbing Toronto Center
11:34PM 43.0500 -82.0667 75° East 420 483 23,800 600 Climbing Toronto Center
11:35PM 43.0833 -81.9167 73° East 430 495 24,300 480 Climbing Toronto Center
11:36PM 43.1333 -81.7833 63° Northeast 450 518 24,800 480 Climbing Toronto Center
11:37PM 43.1667 -81.6000 76° East 450 518 25,300 480 Climbing Toronto Center
11:38PM 43.2167 -81.4333 68° East 460 529 25,800 480 Climbing Toronto Center
11:39PM 43.2500 -81.2500 76° East 460 529 26,300 480 Climbing Toronto Center
11:40PM 43.2833 -81.1000 73° East 470 541 26,800 480 Climbing Toronto Center
11:41PM 43.3333 -80.9167 69° East 470 541 27,300 480 Climbing Toronto Center
11:42PM 43.3833 -80.7500 68° East 470 541 27,800 480 Climbing Toronto Center
11:43PM 43.4167 -80.6000 73° East 470 541 28,300 480 Climbing Toronto Center
11:44PM 43.4667 -80.4167 69° East 470 541 28,800 480 Climbing Toronto Center
11:45PM 43.5000 -80.2333 76° East 470 541 29,300 480 Climbing Toronto Center
11:46PM 43.5500 -80.0667 67° East 470 541 29,800 540 Climbing Toronto Center
11:47PM 43.5833 -79.8833 76° East 470 541 30,400 480 Climbing Toronto Center
11:48PM 43.6167 -79.7333 73° East 470 541 30,800 480 Climbing Toronto Center
11:49PM 43.6667 -79.5333 71° East 480 552 31,400 480 Climbing Toronto Center
11:50PM 43.7167 -79.3833 65° Northeast 470 541 31,800 480 Climbing Toronto Center
11:51PM 43.7667 -79.2167 67° East 470 541 32,400 480 Climbing Toronto Center
11:52PM 43.8167 -79.0500 67° East 470 541 32,800 300 Climbing Toronto Center
11:53PM 43.8667 -78.8667 69° East 470 541 33,000 60 Climbing Toronto Center
11:54PM 43.9167 -78.7000 67° East 470 541 33,000  Level Toronto Center
11:55PM 43.9667 -78.5500 65° Northeast 480 552 33,000  Level Toronto Center
11:56PM 44.0000 -78.3833 74° East 480 552 33,000  Level Toronto Center
11:57PM 44.0833 -78.2167 55° Northeast 480 552 33,000  Level Toronto Center
11:58PM 44.1500 -78.0500 61° Northeast 480 552 33,000  Level Toronto Center
11:59PM 44.2167 -77.9167 55° Northeast 480 552 33,000  Level Toronto Center
12:00AM 44.3000 -77.7167 60° Northeast 480 552 33,000 -180 Level Toronto Center
12:01AM 44.3667 -77.5833 55° Northeast 480 552 32,700 -1,380 Descending Toronto Center
12:02AM 44.4333 -77.4167 61° Northeast 490 564 30,300 -2,460 Descending Toronto Center
12:03AM 44.5000 -77.2500 61° Northeast 500 575 27,800 -2,520 Descending Toronto Center
12:04AM 44.5667 -77.0833 61° Northeast 490 564 25,300 -2,760 Descending Toronto Center
12:05AM 44.6500 -76.9167 55° Northeast 480 552 22,300 -3,240 Descending Toronto Center
12:06AM 44.7167 -76.8000 51° Northeast 460 529 18,900 -3,180 Descending Toronto Center
12:07AM 44.7833 -76.6500 58° Northeast 410 472 16,000 -2,700 Descending Toronto Center
12:08AM 44.8333 -76.5333 59° Northeast 380 437 13,500 -2,460 Descending Toronto Center
12:09AM 44.9000 -76.4333 47° Northeast 360 414 11,100 -2,100 Descending Toronto Center
12:10AM 44.9500 -76.3333 55° Northeast 320 368 9,300 -1,560 Descending Toronto Center
12:11AM 45.0000 -76.2333 55° Northeast 290 334 8,000 -1,500 Descending Toronto Center
12:12AM 45.0500 -76.1333 55° Northeast 280 322 6,300 -1,620 Descending Toronto Center
12:13AM 45.1000 -76.0667 43° Northeast 260 299 4,800 -1,200 Descending Toronto Center
12:14AM 45.1167 -76.0000 70° East 250 288 3,900 -900 Descending Toronto Center
12:15AM 45.1667 -75.9500 35° Northeast 220 253 3,000 -480 Descending Toronto Center
12:16AM 45.2000 -75.8667 60° Northeast 200 230 3,000  Level Toronto Center
12:17AM 45.2333 -75.8000 55° Northeast 190 219 3,000 -360 Level Toronto Center
12:18AM 45.2500 -75.7500 65° Northeast 170 196 2,300 -780 Descending Toronto Center
12:19AM 45.2667 -75.7000 65° Northeast 130 150 1,500 -720 Descending Toronto Center
12:20AM 45.3000 -75.6667 35° Northeast 120 138 900 -600 Descending Toronto Center
12:21AM 45.3167 -75.6167 65° Northeast 120 138 400 -540 Descending Toronto Center